Portada
METAR-TAF:

METAR-TAF

Aeroports :

Shijiazhuang, Xina

latitud: 38-16-51N, longitud: 114-41-48E, altitud: 233 m

Observació

L'informe es va fer fa 45 minuts, a les 20:00 UTC
Vent 2 kt amb direcció variable
Temperatura 23°C
Humitat 100%
Pressió 1005 hPa
Visibilitat: 4000 m
Cel cobert a una alçada de 4600 ft
pluja, boirina,

METAR: ZBSJ 152000Z VRB01MPS 4000 -RA BR OVC046 23/23 Q1005 NOSIG

Hora: 04:45 (20:45 UTC)

Pronòstic

L'informe es va fer fa 5 hores i 37 minuts, a les 15:08 UTC
Pronòstic vàlid del 15 a les 18 UTC al 16 a les 18 UTC
Vent 6 kt del Nord/Nord-Oest
Visibilitat: 3000 m
boirina
Temporalment
l' 15 a les 18 UTC al 15 a les 23 UTC
Visibilitat: 2000 m
pluja, boirina,

TAF: ZBSJ 151508Z 1518/1618 33003MPS 3000 BR NSC TX33/1607Z TN23/1521Z TEMPO 1518/1523 2000 -RA BR

Observacions i pronòstics meteorològics de més de 4000 aeroports (METAR i TAF).

Les estacions disponibles són els punts grocs i vermells al mapa.

Posi el ratolí al punt desitjat per veure el nom de l'estació.

Feu clic per veure les observacions i els pronòstics meteorològics.

Per canviar el mapa: feu clic els botons verds amb una creu de color negre per apropar; al botó verd amb un guió per allunyar la imatge; o en les fletxes verdes per a mapes adjacents.


METAR-TAF: